sensor_id;sensor_type;location;lat;lon;timestamp;temperature;humidity
71367;DHT22;60030;52.274;8.040;2023-01-23T00:02:18;5.60;99.90
71367;DHT22;60030;52.274;8.040;2023-01-23T00:04:46;5.70;99.90
71367;DHT22;60030;52.274;8.040;2023-01-23T00:07:14;5.60;99.90
71367;DHT22;60030;52.274;8.040;2023-01-23T00:09:41;5.60;99.90
71367;DHT22;60030;52.274;8.040;2023-01-23T00:12:08;5.60;99.90
71367;DHT22;60030;52.274;8.040;2023-01-23T00:14:37;5.10;99.90
71367;DHT22;60030;52.274;8.040;2023-01-23T00:17:04;5.20;99.90
71367;DHT22;60030;52.274;8.040;2023-01-23T00:19:31;5.20;99.90
71367;DHT22;60030;52.274;8.040;2023-01-23T00:21:58;5.30;99.90
71367;DHT22;60030;52.274;8.040;2023-01-23T00:24:26;5.40;99.90
71367;DHT22;60030;52.274;8.040;2023-01-23T00:26:54;5.30;99.90
71367;DHT22;60030;52.274;8.040;2023-01-23T00:29:21;5.20;99.90
71367;DHT22;60030;52.274;8.040;2023-01-23T00:31:49;5.00;99.90
71367;DHT22;60030;52.274;8.040;2023-01-23T00:34:17;4.60;99.90
71367;DHT22;60030;52.274;8.040;2023-01-23T00:36:44;4.80;99.90
71367;DHT22;60030;52.274;8.040;2023-01-23T00:39:17;4.90;99.90
71367;DHT22;60030;52.274;8.040;2023-01-23T00:41:45;5.00;99.90
71367;DHT22;60030;52.274;8.040;2023-01-23T00:44:13;5.10;99.90
71367;DHT22;60030;52.274;8.040;2023-01-23T00:46:41;5.20;99.90
71367;DHT22;60030;52.274;8.040;2023-01-23T00:49:09;5.20;99.90
71367;DHT22;60030;52.274;8.040;2023-01-23T00:51:36;5.30;99.90
71367;DHT22;60030;52.274;8.040;2023-01-23T00:54:03;5.30;99.90
71367;DHT22;60030;52.274;8.040;2023-01-23T00:56:31;5.40;99.90
71367;DHT22;60030;52.274;8.040;2023-01-23T00:58:58;5.40;99.90
71367;DHT22;60030;52.274;8.040;2023-01-23T01:01:25;5.20;99.90
71367;DHT22;60030;52.274;8.040;2023-01-23T01:03:53;5.40;99.90
71367;DHT22;60030;52.274;8.040;2023-01-23T01:06:22;5.50;99.90
71367;DHT22;60030;52.274;8.040;2023-01-23T01:08:49;5.50;99.90
71367;DHT22;60030;52.274;8.040;2023-01-23T01:11:17;5.50;99.90
71367;DHT22;60030;52.274;8.040;2023-01-23T01:13:44;5.40;99.90
71367;DHT22;60030;52.274;8.040;2023-01-23T01:16:11;5.00;99.90
71367;DHT22;60030;52.274;8.040;2023-01-23T01:18:39;5.00;99.90
71367;DHT22;60030;52.274;8.040;2023-01-23T01:21:07;5.10;99.90
71367;DHT22;60030;52.274;8.040;2023-01-23T01:23:36;5.20;99.90
71367;DHT22;60030;52.274;8.040;2023-01-23T01:26:04;5.30;99.90
71367;DHT22;60030;52.274;8.040;2023-01-23T01:28:32;5.10;99.90
71367;DHT22;60030;52.274;8.040;2023-01-23T01:31:04;5.30;99.90
71367;DHT22;60030;52.274;8.040;2023-01-23T01:33:32;5.30;99.90
71367;DHT22;60030;52.274;8.040;2023-01-23T01:35:59;5.20;99.90
71367;DHT22;60030;52.274;8.040;2023-01-23T01:38:26;5.40;99.90
71367;DHT22;60030;52.274;8.040;2023-01-23T01:40:55;5.40;99.90
71367;DHT22;60030;52.274;8.040;2023-01-23T01:43:24;5.20;99.90
71367;DHT22;60030;52.274;8.040;2023-01-23T01:46:14;5.30;99.90
71367;DHT22;60030;52.274;8.040;2023-01-23T01:48:47;5.20;99.90
71367;DHT22;60030;52.274;8.040;2023-01-23T01:51:20;5.20;99.90
71367;DHT22;60030;52.274;8.040;2023-01-23T01:53:51;5.30;99.90
71367;DHT22;60030;52.274;8.040;2023-01-23T01:56:21;5.30;99.90
71367;DHT22;60030;52.274;8.040;2023-01-23T01:58:50;5.40;99.90
71367;DHT22;60030;52.274;8.040;2023-01-23T02:01:18;5.40;99.90
71367;DHT22;60030;52.274;8.040;2023-01-23T02:03:46;5.30;99.90
71367;DHT22;60030;52.274;8.040;2023-01-23T02:06:14;5.40;99.90
71367;DHT22;60030;52.274;8.040;2023-01-23T02:08:46;5.40;99.90
71367;DHT22;60030;52.274;8.040;2023-01-23T02:11:15;5.50;99.90
71367;DHT22;60030;52.274;8.040;2023-01-23T02:13:44;5.40;99.90
71367;DHT22;60030;52.274;8.040;2023-01-23T02:16:14;5.10;99.90
71367;DHT22;60030;52.274;8.040;2023-01-23T02:18:46;5.20;99.90
71367;DHT22;60030;52.274;8.040;2023-01-23T02:21:19;5.30;99.90
71367;DHT22;60030;52.274;8.040;2023-01-23T02:24:02;5.40;99.90
71367;DHT22;60030;52.274;8.040;2023-01-23T02:26:37;5.40;99.90
71367;DHT22;60030;52.274;8.040;2023-01-23T02:29:06;5.30;99.90
71367;DHT22;60030;52.274;8.040;2023-01-23T02:31:43;5.40;99.90
71367;DHT22;60030;52.274;8.040;2023-01-23T02:34:12;5.40;99.90
71367;DHT22;60030;52.274;8.040;2023-01-23T02:36:41;5.40;99.90
71367;DHT22;60030;52.274;8.040;2023-01-23T02:39:12;5.50;99.90
71367;DHT22;60030;52.274;8.040;2023-01-23T02:41:42;5.30;99.90
71367;DHT22;60030;52.274;8.040;2023-01-23T02:44:14;5.40;99.90
71367;DHT22;60030;52.274;8.040;2023-01-23T02:46:45;5.30;99.90
71367;DHT22;60030;52.274;8.040;2023-01-23T02:49:12;5.40;99.90
71367;DHT22;60030;52.274;8.040;2023-01-23T02:51:40;5.50;99.90
71367;DHT22;60030;52.274;8.040;2023-01-23T02:54:07;5.30;99.90
71367;DHT22;60030;52.274;8.040;2023-01-23T02:56:34;5.40;99.90
71367;DHT22;60030;52.274;8.040;2023-01-23T02:59:03;5.40;99.90
71367;DHT22;60030;52.274;8.040;2023-01-23T03:01:49;5.50;99.90
71367;DHT22;60030;52.274;8.040;2023-01-23T03:04:16;5.60;99.90
71367;DHT22;60030;52.274;8.040;2023-01-23T03:06:43;5.50;99.90
71367;DHT22;60030;52.274;8.040;2023-01-23T03:09:13;5.40;99.90
71367;DHT22;60030;52.274;8.040;2023-01-23T03:11:41;5.50;99.90
71367;DHT22;60030;52.274;8.040;2023-01-23T03:14:13;5.60;99.90
71367;DHT22;60030;52.274;8.040;2023-01-23T03:16:41;5.50;99.90
71367;DHT22;60030;52.274;8.040;2023-01-23T03:19:10;5.50;99.90
71367;DHT22;60030;52.274;8.040;2023-01-23T03:21:39;5.40;99.90
71367;DHT22;60030;52.274;8.040;2023-01-23T03:24:08;5.40;99.90
71367;DHT22;60030;52.274;8.040;2023-01-23T03:26:37;5.50;99.90
71367;DHT22;60030;52.274;8.040;2023-01-23T03:29:06;5.50;99.90
71367;DHT22;60030;52.274;8.040;2023-01-23T03:31:52;5.60;99.90
71367;DHT22;60030;52.274;8.040;2023-01-23T03:34:19;5.50;99.90
71367;DHT22;60030;52.274;8.040;2023-01-23T03:36:50;5.40;99.90
71367;DHT22;60030;52.274;8.040;2023-01-23T03:39:17;5.40;99.90
71367;DHT22;60030;52.274;8.040;2023-01-23T03:42:02;5.40;99.90
71367;DHT22;60030;52.274;8.040;2023-01-23T03:44:30;5.50;99.90
71367;DHT22;60030;52.274;8.040;2023-01-23T03:46:58;5.50;99.90
71367;DHT22;60030;52.274;8.040;2023-01-23T03:49:26;5.40;99.90
71367;DHT22;60030;52.274;8.040;2023-01-23T03:51:57;5.60;99.90
71367;DHT22;60030;52.274;8.040;2023-01-23T03:54:25;5.70;99.90
71367;DHT22;60030;52.274;8.040;2023-01-23T03:56:53;5.70;99.90
71367;DHT22;60030;52.274;8.040;2023-01-23T03:59:52;5.70;99.90
71367;DHT22;60030;52.274;8.040;2023-01-23T04:02:25;5.70;99.90
71367;DHT22;60030;52.274;8.040;2023-01-23T04:04:54;5.50;99.90
71367;DHT22;60030;52.274;8.040;2023-01-23T04:07:21;5.40;99.90
71367;DHT22;60030;52.274;8.040;2023-01-23T04:09:48;5.40;99.90
71367;DHT22;60030;52.274;8.040;2023-01-23T04:12:15;5.40;99.90
71367;DHT22;60030;52.274;8.040;2023-01-23T04:14:46;5.50;99.90
71367;DHT22;60030;52.274;8.040;2023-01-23T04:17:14;5.30;99.90
71367;DHT22;60030;52.274;8.040;2023-01-23T04:19:43;5.40;99.90
71367;DHT22;60030;52.274;8.040;2023-01-23T04:22:10;5.30;99.90
71367;DHT22;60030;52.274;8.040;2023-01-23T04:24:43;5.20;99.90
71367;DHT22;60030;52.274;8.040;2023-01-23T04:27:10;5.30;99.90
71367;DHT22;60030;52.274;8.040;2023-01-23T04:29:38;5.40;99.90
71367;DHT22;60030;52.274;8.040;2023-01-23T04:32:07;5.60;99.90
71367;DHT22;60030;52.274;8.040;2023-01-23T04:34:37;5.70;99.90
71367;DHT22;60030;52.274;8.040;2023-01-23T04:37:06;5.60;99.90
71367;DHT22;60030;52.274;8.040;2023-01-23T04:39:34;5.40;99.90
71367;DHT22;60030;52.274;8.040;2023-01-23T04:42:01;5.50;99.90
71367;DHT22;60030;52.274;8.040;2023-01-23T04:44:44;5.50;99.90
71367;DHT22;60030;52.274;8.040;2023-01-23T04:47:29;5.60;99.90
71367;DHT22;60030;52.274;8.040;2023-01-23T04:49:57;5.70;99.90
71367;DHT22;60030;52.274;8.040;2023-01-23T04:52:26;5.70;99.90
71367;DHT22;60030;52.274;8.040;2023-01-23T04:54:56;5.70;99.90
71367;DHT22;60030;52.274;8.040;2023-01-23T04:57:24;5.70;99.90
71367;DHT22;60030;52.274;8.040;2023-01-23T04:59:57;5.60;99.90
71367;DHT22;60030;52.274;8.040;2023-01-23T05:02:24;5.70;99.90
71367;DHT22;60030;52.274;8.040;2023-01-23T05:04:52;5.70;99.90
71367;DHT22;60030;52.274;8.040;2023-01-23T05:07:21;5.60;99.90
71367;DHT22;60030;52.274;8.040;2023-01-23T05:10:05;5.40;99.90
71367;DHT22;60030;52.274;8.040;2023-01-23T05:12:32;5.30;99.90
71367;DHT22;60030;52.274;8.040;2023-01-23T05:14:59;5.40;99.90
71367;DHT22;60030;52.274;8.040;2023-01-23T05:17:27;5.60;99.90
71367;DHT22;60030;52.274;8.040;2023-01-23T05:19:54;5.60;99.90
71367;DHT22;60030;52.274;8.040;2023-01-23T05:22:22;5.50;99.90
71367;DHT22;60030;52.274;8.040;2023-01-23T05:24:49;5.50;99.90
71367;DHT22;60030;52.274;8.040;2023-01-23T05:27:18;5.40;99.90
71367;DHT22;60030;52.274;8.040;2023-01-23T05:29:47;5.60;99.90
71367;DHT22;60030;52.274;8.040;2023-01-23T05:32:19;5.60;99.90
71367;DHT22;60030;52.274;8.040;2023-01-23T05:34:54;5.60;99.90
71367;DHT22;60030;52.274;8.040;2023-01-23T05:37:25;5.60;99.90
71367;DHT22;60030;52.274;8.040;2023-01-23T05:39:56;5.60;99.90
71367;DHT22;60030;52.274;8.040;2023-01-23T05:42:27;5.50;99.90
71367;DHT22;60030;52.274;8.040;2023-01-23T05:45:32;5.50;99.90
71367;DHT22;60030;52.274;8.040;2023-01-23T05:48:00;5.00;99.90
71367;DHT22;60030;52.274;8.040;2023-01-23T05:50:29;5.00;99.90
71367;DHT22;60030;52.274;8.040;2023-01-23T05:52:56;5.10;99.90
71367;DHT22;60030;52.274;8.040;2023-01-23T05:55:23;5.20;99.90
71367;DHT22;60030;52.274;8.040;2023-01-23T05:57:51;5.00;99.90
71367;DHT22;60030;52.274;8.040;2023-01-23T06:00:39;5.20;99.90
71367;DHT22;60030;52.274;8.040;2023-01-23T06:03:38;5.30;99.90
71367;DHT22;60030;52.274;8.040;2023-01-23T06:06:29;5.30;99.90
71367;DHT22;60030;52.274;8.040;2023-01-23T06:08:58;5.30;99.90
71367;DHT22;60030;52.274;8.040;2023-01-23T06:11:25;5.30;99.90
71367;DHT22;60030;52.274;8.040;2023-01-23T06:13:53;5.50;99.90
71367;DHT22;60030;52.274;8.040;2023-01-23T06:16:21;5.30;99.90
71367;DHT22;60030;52.274;8.040;2023-01-23T06:18:49;5.40;99.90
71367;DHT22;60030;52.274;8.040;2023-01-23T06:21:16;5.40;99.90
71367;DHT22;60030;52.274;8.040;2023-01-23T06:23:43;5.40;99.90
71367;DHT22;60030;52.274;8.040;2023-01-23T06:26:11;5.30;99.90
71367;DHT22;60030;52.274;8.040;2023-01-23T06:28:39;5.20;99.90
71367;DHT22;60030;52.274;8.040;2023-01-23T06:31:08;5.20;99.90
71367;DHT22;60030;52.274;8.040;2023-01-23T06:33:48;5.20;99.90
71367;DHT22;60030;52.274;8.040;2023-01-23T06:36:16;5.10;99.90
71367;DHT22;60030;52.274;8.040;2023-01-23T06:38:43;5.20;99.90
71367;DHT22;60030;52.274;8.040;2023-01-23T06:41:12;5.10;99.90
71367;DHT22;60030;52.274;8.040;2023-01-23T06:43:45;5.30;99.90
71367;DHT22;60030;52.274;8.040;2023-01-23T06:46:18;5.20;99.90
71367;DHT22;60030;52.274;8.040;2023-01-23T06:48:45;5.40;99.90
71367;DHT22;60030;52.274;8.040;2023-01-23T06:51:12;5.50;99.90
71367;DHT22;60030;52.274;8.040;2023-01-23T06:53:42;5.30;99.90
71367;DHT22;60030;52.274;8.040;2023-01-23T06:56:11;5.30;99.90
71367;DHT22;60030;52.274;8.040;2023-01-23T06:58:38;5.20;99.90
71367;DHT22;60030;52.274;8.040;2023-01-23T07:01:18;5.40;99.90
71367;DHT22;60030;52.274;8.040;2023-01-23T07:04:13;5.50;99.90
71367;DHT22;60030;52.274;8.040;2023-01-23T07:06:42;5.50;99.90
71367;DHT22;60030;52.274;8.040;2023-01-23T07:09:11;5.00;99.90
71367;DHT22;60030;52.274;8.040;2023-01-23T07:11:38;5.00;99.90
71367;DHT22;60030;52.274;8.040;2023-01-23T07:14:06;4.90;99.90
71367;DHT22;60030;52.274;8.040;2023-01-23T07:16:36;4.90;99.90
71367;DHT22;60030;52.274;8.040;2023-01-23T07:19:04;4.90;99.90
71367;DHT22;60030;52.274;8.040;2023-01-23T07:21:34;5.10;99.90
71367;DHT22;60030;52.274;8.040;2023-01-23T07:24:01;5.30;99.90
71367;DHT22;60030;52.274;8.040;2023-01-23T07:26:28;5.20;99.90
71367;DHT22;60030;52.274;8.040;2023-01-23T07:28:55;5.10;99.90
71367;DHT22;60030;52.274;8.040;2023-01-23T07:31:22;5.10;99.90
71367;DHT22;60030;52.274;8.040;2023-01-23T07:33:50;5.00;99.90
71367;DHT22;60030;52.274;8.040;2023-01-23T07:36:17;4.90;99.90
71367;DHT22;60030;52.274;8.040;2023-01-23T07:38:44;4.80;99.90
71367;DHT22;60030;52.274;8.040;2023-01-23T07:41:12;5.00;99.90
71367;DHT22;60030;52.274;8.040;2023-01-23T07:43:40;5.10;99.90
71367;DHT22;60030;52.274;8.040;2023-01-23T07:46:07;5.00;99.90
71367;DHT22;60030;52.274;8.040;2023-01-23T07:48:35;5.20;99.90
71367;DHT22;60030;52.274;8.040;2023-01-23T07:51:04;5.40;99.90
71367;DHT22;60030;52.274;8.040;2023-01-23T07:53:32;5.10;99.90
71367;DHT22;60030;52.274;8.040;2023-01-23T07:56:03;5.20;99.90
71367;DHT22;60030;52.274;8.040;2023-01-23T07:58:30;5.10;99.90
71367;DHT22;60030;52.274;8.040;2023-01-23T08:00:57;5.30;99.90
71367;DHT22;60030;52.274;8.040;2023-01-23T08:03:25;5.20;99.90
71367;DHT22;60030;52.274;8.040;2023-01-23T08:05:53;5.00;99.90
71367;DHT22;60030;52.274;8.040;2023-01-23T08:08:22;5.10;99.90
71367;DHT22;60030;52.274;8.040;2023-01-23T08:10:49;5.10;99.90
71367;DHT22;60030;52.274;8.040;2023-01-23T08:13:16;5.20;99.90
71367;DHT22;60030;52.274;8.040;2023-01-23T08:15:43;5.30;99.90
71367;DHT22;60030;52.274;8.040;2023-01-23T08:18:11;5.20;99.90
71367;DHT22;60030;52.274;8.040;2023-01-23T08:20:38;5.10;99.90
71367;DHT22;60030;52.274;8.040;2023-01-23T08:23:05;5.10;99.90
71367;DHT22;60030;52.274;8.040;2023-01-23T08:25:34;5.40;99.90
71367;DHT22;60030;52.274;8.040;2023-01-23T08:28:01;5.30;99.90
71367;DHT22;60030;52.274;8.040;2023-01-23T08:30:28;5.20;99.90
71367;DHT22;60030;52.274;8.040;2023-01-23T08:32:55;5.10;99.90
71367;DHT22;60030;52.274;8.040;2023-01-23T08:35:22;5.10;99.90
71367;DHT22;60030;52.274;8.040;2023-01-23T08:37:49;5.10;99.90
71367;DHT22;60030;52.274;8.040;2023-01-23T08:40:16;5.20;99.90
71367;DHT22;60030;52.274;8.040;2023-01-23T08:42:45;5.00;99.90
71367;DHT22;60030;52.274;8.040;2023-01-23T08:45:12;5.00;99.90
71367;DHT22;60030;52.274;8.040;2023-01-23T08:47:39;5.20;99.90
71367;DHT22;60030;52.274;8.040;2023-01-23T08:50:07;5.10;99.90
71367;DHT22;60030;52.274;8.040;2023-01-23T08:52:34;5.00;99.90
71367;DHT22;60030;52.274;8.040;2023-01-23T08:55:02;5.40;99.90
71367;DHT22;60030;52.274;8.040;2023-01-23T08:57:29;5.40;99.90
71367;DHT22;60030;52.274;8.040;2023-01-23T08:59:58;5.30;99.90
71367;DHT22;60030;52.274;8.040;2023-01-23T09:02:25;5.10;99.90
71367;DHT22;60030;52.274;8.040;2023-01-23T09:04:52;5.30;99.90
71367;DHT22;60030;52.274;8.040;2023-01-23T09:07:19;5.10;99.90
71367;DHT22;60030;52.274;8.040;2023-01-23T09:09:46;5.30;99.90
71367;DHT22;60030;52.274;8.040;2023-01-23T09:12:13;5.60;99.90
71367;DHT22;60030;52.274;8.040;2023-01-23T09:14:40;5.50;99.90
71367;DHT22;60030;52.274;8.040;2023-01-23T09:17:08;5.50;99.90
71367;DHT22;60030;52.274;8.040;2023-01-23T09:19:35;5.60;99.90
71367;DHT22;60030;52.274;8.040;2023-01-23T09:22:02;5.30;99.90
71367;DHT22;60030;52.274;8.040;2023-01-23T09:24:30;5.20;99.90
71367;DHT22;60030;52.274;8.040;2023-01-23T09:26:57;5.40;99.90
71367;DHT22;60030;52.274;8.040;2023-01-23T09:29:24;5.40;99.90
71367;DHT22;60030;52.274;8.040;2023-01-23T09:31:51;5.10;99.90
71367;DHT22;60030;52.274;8.040;2023-01-23T09:34:19;5.20;99.90
71367;DHT22;60030;52.274;8.040;2023-01-23T09:36:47;5.40;99.90
71367;DHT22;60030;52.274;8.040;2023-01-23T09:39:14;5.50;99.90
71367;DHT22;60030;52.274;8.040;2023-01-23T09:41:42;5.60;99.90
71367;DHT22;60030;52.274;8.040;2023-01-23T09:44:16;5.40;99.90
71367;DHT22;60030;52.274;8.040;2023-01-23T09:46:46;5.40;99.90
71367;DHT22;60030;52.274;8.040;2023-01-23T09:49:22;5.70;99.90
71367;DHT22;60030;52.274;8.040;2023-01-23T09:51:55;5.70;99.90
71367;DHT22;60030;52.274;8.040;2023-01-23T09:54:33;5.70;99.90
71367;DHT22;60030;52.274;8.040;2023-01-23T09:57:10;5.50;99.90
71367;DHT22;60030;52.274;8.040;2023-01-23T09:59:39;5.60;99.90
71367;DHT22;60030;52.274;8.040;2023-01-23T10:02:14;5.60;99.90
71367;DHT22;60030;52.274;8.040;2023-01-23T10:04:46;5.80;99.90
71367;DHT22;60030;52.274;8.040;2023-01-23T10:07:26;5.90;99.90
71367;DHT22;60030;52.274;8.040;2023-01-23T10:10:09;6.00;99.90
71367;DHT22;60030;52.274;8.040;2023-01-23T10:12:51;5.80;99.90
71367;DHT22;60030;52.274;8.040;2023-01-23T10:15:27;6.20;99.90
71367;DHT22;60030;52.274;8.040;2023-01-23T10:18:07;6.20;99.90
71367;DHT22;60030;52.274;8.040;2023-01-23T10:20:56;6.10;99.90
71367;DHT22;60030;52.274;8.040;2023-01-23T10:23:48;5.80;99.90
71367;DHT22;60030;52.274;8.040;2023-01-23T10:26:19;5.90;99.90
71367;DHT22;60030;52.274;8.040;2023-01-23T10:28:52;5.90;99.90
71367;DHT22;60030;52.274;8.040;2023-01-23T10:31:29;5.80;99.90
71367;DHT22;60030;52.274;8.040;2023-01-23T10:34:05;5.80;99.90
71367;DHT22;60030;52.274;8.040;2023-01-23T10:36:39;5.80;99.90
71367;DHT22;60030;52.274;8.040;2023-01-23T10:39:13;5.90;99.90
71367;DHT22;60030;52.274;8.040;2023-01-23T10:41:41;6.00;99.90
71367;DHT22;60030;52.274;8.040;2023-01-23T10:44:14;6.00;99.90
71367;DHT22;60030;52.274;8.040;2023-01-23T10:46:46;5.80;99.90
71367;DHT22;60030;52.274;8.040;2023-01-23T10:49:27;5.90;99.90
71367;DHT22;60030;52.274;8.040;2023-01-23T10:51:57;6.00;99.90
71367;DHT22;60030;52.274;8.040;2023-01-23T10:54:25;6.10;99.90
71367;DHT22;60030;52.274;8.040;2023-01-23T10:56:55;6.10;99.90
71367;DHT22;60030;52.274;8.040;2023-01-23T10:59:33;6.10;99.90
71367;DHT22;60030;52.274;8.040;2023-01-23T11:02:16;6.10;99.90
71367;DHT22;60030;52.274;8.040;2023-01-23T11:04:45;6.10;99.90
71367;DHT22;60030;52.274;8.040;2023-01-23T11:07:15;6.20;99.90
71367;DHT22;60030;52.274;8.040;2023-01-23T11:09:52;6.20;99.90
71367;DHT22;60030;52.274;8.040;2023-01-23T11:12:21;6.30;99.90
71367;DHT22;60030;52.274;8.040;2023-01-23T11:14:48;6.30;99.90
71367;DHT22;60030;52.274;8.040;2023-01-23T11:17:21;6.10;99.90
71367;DHT22;60030;52.274;8.040;2023-01-23T11:19:51;6.10;99.90
71367;DHT22;60030;52.274;8.040;2023-01-23T11:22:31;6.10;99.90
71367;DHT22;60030;52.274;8.040;2023-01-23T11:24:59;6.40;99.90
71367;DHT22;60030;52.274;8.040;2023-01-23T11:27:27;6.10;99.90
71367;DHT22;60030;52.274;8.040;2023-01-23T11:30:20;6.20;99.90
71367;DHT22;60030;52.274;8.040;2023-01-23T11:32:55;6.20;99.90
71367;DHT22;60030;52.274;8.040;2023-01-23T11:35:28;6.40;99.90
71367;DHT22;60030;52.274;8.040;2023-01-23T11:38:02;6.40;99.90
71367;DHT22;60030;52.274;8.040;2023-01-23T11:40:30;6.50;99.90
71367;DHT22;60030;52.274;8.040;2023-01-23T11:43:11;6.50;99.90
71367;DHT22;60030;52.274;8.040;2023-01-23T11:45:56;6.60;99.90
71367;DHT22;60030;52.274;8.040;2023-01-23T11:48:38;6.60;99.90
71367;DHT22;60030;52.274;8.040;2023-01-23T11:51:14;6.40;99.90
71367;DHT22;60030;52.274;8.040;2023-01-23T11:53:50;6.30;99.90
71367;DHT22;60030;52.274;8.040;2023-01-23T11:56:30;6.40;99.90
71367;DHT22;60030;52.274;8.040;2023-01-23T11:59:09;6.30;99.90
71367;DHT22;60030;52.274;8.040;2023-01-23T12:01:51;6.10;99.90
71367;DHT22;60030;52.274;8.040;2023-01-23T12:04:38;6.30;99.90
71367;DHT22;60030;52.274;8.040;2023-01-23T12:07:16;6.50;99.90
71367;DHT22;60030;52.274;8.040;2023-01-23T12:10:03;6.40;99.90
71367;DHT22;60030;52.274;8.040;2023-01-23T12:12:57;6.70;99.90
71367;DHT22;60030;52.274;8.040;2023-01-23T12:15:33;6.60;99.90
71367;DHT22;60030;52.274;8.040;2023-01-23T12:18:10;6.80;99.90
71367;DHT22;60030;52.274;8.040;2023-01-23T12:20:49;6.70;99.90
71367;DHT22;60030;52.274;8.040;2023-01-23T12:26:17;6.50;99.90
71367;DHT22;60030;52.274;8.040;2023-01-23T12:31:45;6.40;99.90
71367;DHT22;60030;52.274;8.040;2023-01-23T12:34:31;6.60;99.90
71367;DHT22;60030;52.274;8.040;2023-01-23T12:37:18;6.60;99.90
71367;DHT22;60030;52.274;8.040;2023-01-23T12:39:56;6.90;99.90
71367;DHT22;60030;52.274;8.040;2023-01-23T12:42:28;6.70;99.90
71367;DHT22;60030;52.274;8.040;2023-01-23T12:45:01;6.60;99.90
71367;DHT22;60030;52.274;8.040;2023-01-23T12:47:34;6.60;99.90
71367;DHT22;60030;52.274;8.040;2023-01-23T12:50:05;6.50;99.90
71367;DHT22;60030;52.274;8.040;2023-01-23T12:52:44;6.40;99.90
71367;DHT22;60030;52.274;8.040;2023-01-23T12:55:17;6.50;99.90
71367;DHT22;60030;52.274;8.040;2023-01-23T12:57:47;6.50;99.90
71367;DHT22;60030;52.274;8.040;2023-01-23T13:00:32;6.40;99.90
71367;DHT22;60030;52.274;8.040;2023-01-23T13:03:18;6.20;99.90
71367;DHT22;60030;52.274;8.040;2023-01-23T13:05:55;6.20;99.90
71367;DHT22;60030;52.274;8.040;2023-01-23T13:08:32;6.30;99.90
71367;DHT22;60030;52.274;8.040;2023-01-23T13:11:03;6.30;99.90
71367;DHT22;60030;52.274;8.040;2023-01-23T13:13:51;6.20;99.90
71367;DHT22;60030;52.274;8.040;2023-01-23T13:16:19;6.30;99.90
71367;DHT22;60030;52.274;8.040;2023-01-23T13:18:54;6.30;99.90
71367;DHT22;60030;52.274;8.040;2023-01-23T13:21:38;6.50;99.90
71367;DHT22;60030;52.274;8.040;2023-01-23T13:24:38;6.60;99.90
71367;DHT22;60030;52.274;8.040;2023-01-23T13:27:43;6.70;99.90
71367;DHT22;60030;52.274;8.040;2023-01-23T13:30:41;6.70;99.90
71367;DHT22;60030;52.274;8.040;2023-01-23T13:36:29;6.50;99.90
71367;DHT22;60030;52.274;8.040;2023-01-23T13:39:19;6.70;99.90
71367;DHT22;60030;52.274;8.040;2023-01-23T13:41:48;6.50;99.90
71367;DHT22;60030;52.274;8.040;2023-01-23T13:44:18;6.70;99.90
71367;DHT22;60030;52.274;8.040;2023-01-23T13:47:14;6.40;99.90
71367;DHT22;60030;52.274;8.040;2023-01-23T13:50:05;6.40;99.90
71367;DHT22;60030;52.274;8.040;2023-01-23T13:52:37;6.40;99.90
71367;DHT22;60030;52.274;8.040;2023-01-23T13:55:25;6.60;99.90
71367;DHT22;60030;52.274;8.040;2023-01-23T13:58:13;6.40;99.90
71367;DHT22;60030;52.274;8.040;2023-01-23T14:00:48;6.40;99.90
71367;DHT22;60030;52.274;8.040;2023-01-23T14:03:37;6.40;99.90
71367;DHT22;60030;52.274;8.040;2023-01-23T14:06:31;6.40;99.90
71367;DHT22;60030;52.274;8.040;2023-01-23T14:08:58;6.20;99.90
71367;DHT22;60030;52.274;8.040;2023-01-23T14:11:34;6.10;99.90
71367;DHT22;60030;52.274;8.040;2023-01-23T14:14:03;5.80;99.90
71367;DHT22;60030;52.274;8.040;2023-01-23T14:16:48;5.80;99.90
71367;DHT22;60030;52.274;8.040;2023-01-23T14:19:23;6.00;99.90
71367;DHT22;60030;52.274;8.040;2023-01-23T14:21:54;6.10;99.90
71367;DHT22;60030;52.274;8.040;2023-01-23T14:24:23;6.40;99.90
71367;DHT22;60030;52.274;8.040;2023-01-23T14:26:53;6.30;99.90
71367;DHT22;60030;52.274;8.040;2023-01-23T14:29:25;6.30;99.90
71367;DHT22;60030;52.274;8.040;2023-01-23T14:31:53;6.00;99.90
71367;DHT22;60030;52.274;8.040;2023-01-23T14:34:23;5.90;99.90
71367;DHT22;60030;52.274;8.040;2023-01-23T14:36:52;5.90;99.90
71367;DHT22;60030;52.274;8.040;2023-01-23T14:39:21;6.10;99.90
71367;DHT22;60030;52.274;8.040;2023-01-23T14:41:50;6.20;99.90
71367;DHT22;60030;52.274;8.040;2023-01-23T14:44:21;6.40;99.90
71367;DHT22;60030;52.274;8.040;2023-01-23T14:46:52;6.30;99.90
71367;DHT22;60030;52.274;8.040;2023-01-23T14:49:25;6.20;99.90
71367;DHT22;60030;52.274;8.040;2023-01-23T14:51:56;6.40;99.90
71367;DHT22;60030;52.274;8.040;2023-01-23T14:54:23;6.40;99.90
71367;DHT22;60030;52.274;8.040;2023-01-23T14:56:52;6.50;99.90
71367;DHT22;60030;52.274;8.040;2023-01-23T14:59:26;6.10;99.90
71367;DHT22;60030;52.274;8.040;2023-01-23T15:01:53;6.00;99.90
71367;DHT22;60030;52.274;8.040;2023-01-23T15:04:23;6.20;99.90
71367;DHT22;60030;52.274;8.040;2023-01-23T15:06:52;6.20;99.90
71367;DHT22;60030;52.274;8.040;2023-01-23T15:09:24;6.40;99.90
71367;DHT22;60030;52.274;8.040;2023-01-23T15:11:52;6.50;99.90
71367;DHT22;60030;52.274;8.040;2023-01-23T15:14:23;6.40;99.90
71367;DHT22;60030;52.274;8.040;2023-01-23T15:16:58;6.40;99.90
71367;DHT22;60030;52.274;8.040;2023-01-23T15:19:27;6.50;99.90
71367;DHT22;60030;52.274;8.040;2023-01-23T15:22:06;6.40;99.90
71367;DHT22;60030;52.274;8.040;2023-01-23T15:24:34;6.30;99.90
71367;DHT22;60030;52.274;8.040;2023-01-23T15:27:04;6.50;99.90
71367;DHT22;60030;52.274;8.040;2023-01-23T15:29:32;6.50;99.90
71367;DHT22;60030;52.274;8.040;2023-01-23T15:32:00;6.60;99.90
71367;DHT22;60030;52.274;8.040;2023-01-23T15:34:31;6.50;99.90
71367;DHT22;60030;52.274;8.040;2023-01-23T15:37:04;6.60;99.90
71367;DHT22;60030;52.274;8.040;2023-01-23T15:39:35;6.50;99.90
71367;DHT22;60030;52.274;8.040;2023-01-23T15:42:21;6.40;99.90
71367;DHT22;60030;52.274;8.040;2023-01-23T15:44:50;6.40;99.90
71367;DHT22;60030;52.274;8.040;2023-01-23T15:47:17;6.20;99.90
71367;DHT22;60030;52.274;8.040;2023-01-23T15:49:45;6.30;99.90
71367;DHT22;60030;52.274;8.040;2023-01-23T15:52:19;6.40;99.90
71367;DHT22;60030;52.274;8.040;2023-01-23T15:54:48;6.10;99.90
71367;DHT22;60030;52.274;8.040;2023-01-23T15:57:16;6.20;99.90
71367;DHT22;60030;52.274;8.040;2023-01-23T15:59:43;6.10;99.90
71367;DHT22;60030;52.274;8.040;2023-01-23T16:02:14;6.10;99.90
71367;DHT22;60030;52.274;8.040;2023-01-23T16:04:42;6.10;99.90
71367;DHT22;60030;52.274;8.040;2023-01-23T16:07:20;6.10;99.90
71367;DHT22;60030;52.274;8.040;2023-01-23T16:09:48;6.20;99.90
71367;DHT22;60030;52.274;8.040;2023-01-23T16:12:18;6.10;99.90
71367;DHT22;60030;52.274;8.040;2023-01-23T16:14:45;6.00;99.90
71367;DHT22;60030;52.274;8.040;2023-01-23T16:17:12;5.70;99.90
71367;DHT22;60030;52.274;8.040;2023-01-23T16:19:39;5.70;99.90
71367;DHT22;60030;52.274;8.040;2023-01-23T16:22:15;5.70;99.90
71367;DHT22;60030;52.274;8.040;2023-01-23T16:24:45;6.00;99.90